createdAt,value
2023-02-23T00:02:18.193Z,10.63
2023-02-23T00:05:22.184Z,10.38
2023-02-23T00:08:28.368Z,13.48
2023-02-23T00:11:33.711Z,12.93
2023-02-23T00:14:38.308Z,12.50
2023-02-23T00:17:42.208Z,12.85
2023-02-23T00:20:48.618Z,17.23
2023-02-23T00:23:57.514Z,17.50
2023-02-23T00:27:06.353Z,9.20
2023-02-23T00:30:12.565Z,7.93
2023-02-23T00:33:17.000Z,8.27
2023-02-23T00:36:22.540Z,8.57
2023-02-23T00:39:29.264Z,8.57
2023-02-23T00:42:32.988Z,8.00
2023-02-23T00:45:38.277Z,7.13
2023-02-23T00:48:42.091Z,7.15
2023-02-23T00:51:47.026Z,7.53
2023-02-23T00:54:51.591Z,9.82
2023-02-23T00:57:55.097Z,9.43
2023-02-23T01:01:01.627Z,9.93
2023-02-23T01:04:06.410Z,8.40
2023-02-23T01:07:13.030Z,7.45
2023-02-23T01:10:19.969Z,9.63
2023-02-23T01:13:25.296Z,7.83
2023-02-23T01:16:34.864Z,7.38
2023-02-23T01:19:38.612Z,6.72
2023-02-23T01:22:42.892Z,7.57
2023-02-23T01:25:49.552Z,7.63
2023-02-23T01:28:55.763Z,6.60
2023-02-23T01:32:04.220Z,7.35
2023-02-23T01:35:12.834Z,7.97
2023-02-23T01:38:16.278Z,7.18
2023-02-23T01:41:20.246Z,6.63
2023-02-23T01:44:26.689Z,7.20
2023-02-23T01:47:32.233Z,6.82
2023-02-23T01:51:13.913Z,7.45
2023-02-23T01:54:21.598Z,7.35
2023-02-23T01:57:27.187Z,8.05
2023-02-23T02:00:32.632Z,8.13
2023-02-23T02:03:47.651Z,8.73
2023-02-23T02:06:54.003Z,7.80
2023-02-23T02:10:11.104Z,8.77
2023-02-23T02:13:18.678Z,9.05
2023-02-23T02:16:33.948Z,8.27
2023-02-23T02:20:01.889Z,8.55
2023-02-23T02:23:37.656Z,9.02
2023-02-23T02:26:52.095Z,8.02
2023-02-23T02:30:24.918Z,8.50
2023-02-23T02:33:44.053Z,8.13
2023-02-23T02:37:09.072Z,8.65
2023-02-23T02:40:25.726Z,8.95
2023-02-23T02:43:43.018Z,8.63
2023-02-23T02:46:55.189Z,8.35
2023-02-23T02:50:19.576Z,7.67
2023-02-23T02:53:52.109Z,7.55
2023-02-23T02:57:00.548Z,7.25
2023-02-23T03:00:24.291Z,7.55
2023-02-23T03:04:00.443Z,6.97
2023-02-23T03:07:35.549Z,7.63
2023-02-23T03:11:09.234Z,9.05
2023-02-23T03:14:31.111Z,8.32
2023-02-23T03:18:16.443Z,7.80
2023-02-23T03:22:15.483Z,8.70
2023-02-23T03:26:00.593Z,6.60
2023-02-23T03:29:47.210Z,6.85
2023-02-23T03:33:14.332Z,7.00
2023-02-23T03:36:46.436Z,7.32
2023-02-23T03:40:21.914Z,6.73
2023-02-23T03:43:53.829Z,7.30
2023-02-23T03:47:17.465Z,7.95
2023-02-23T03:50:56.506Z,7.47
2023-02-23T03:54:56.351Z,7.78
2023-02-23T03:58:21.613Z,6.70
2023-02-23T04:01:45.189Z,6.45
2023-02-23T04:05:08.426Z,7.25
2023-02-23T04:08:33.752Z,7.88
2023-02-23T04:12:10.270Z,7.70
2023-02-23T04:15:28.575Z,7.35
2023-02-23T04:18:35.870Z,8.05
2023-02-23T04:21:39.375Z,9.05
2023-02-23T04:24:42.846Z,8.13
2023-02-23T04:27:46.336Z,8.07
2023-02-23T04:30:52.376Z,7.80
2023-02-23T04:33:55.912Z,9.35
2023-02-23T04:36:59.614Z,8.88
2023-02-23T04:40:03.106Z,8.75
2023-02-23T04:43:06.638Z,9.00
2023-02-23T04:46:10.094Z,8.83
2023-02-23T04:49:13.607Z,9.38
2023-02-23T04:52:17.426Z,9.90
2023-02-23T04:55:25.363Z,9.10
2023-02-23T04:58:30.399Z,9.07
2023-02-23T05:01:33.873Z,9.77
2023-02-23T05:04:37.455Z,14.13
2023-02-23T05:07:41.073Z,8.13
2023-02-23T05:10:46.042Z,7.23
2023-02-23T05:13:49.556Z,8.32
2023-02-23T05:16:53.401Z,16.63
2023-02-23T05:19:57.037Z,10.30
2023-02-23T05:23:00.675Z,9.13
2023-02-23T05:26:07.492Z,8.65
2023-02-23T05:29:11.051Z,8.48
2023-02-23T05:32:15.505Z,10.70
2023-02-23T05:35:19.161Z,10.27
2023-02-23T05:38:22.830Z,11.20
2023-02-23T05:41:26.586Z,11.63
2023-02-23T05:44:30.074Z,11.43
2023-02-23T05:47:35.651Z,14.47
2023-02-23T05:50:39.187Z,17.48
2023-02-23T05:53:43.417Z,11.50
2023-02-23T05:56:46.832Z,11.20
2023-02-23T05:59:50.409Z,9.27
2023-02-23T06:02:54.392Z,8.10
2023-02-23T06:05:59.449Z,8.60
2023-02-23T06:09:04.265Z,8.02
2023-02-23T06:12:09.193Z,8.90
2023-02-23T06:15:12.783Z,8.55
2023-02-23T06:18:17.718Z,9.60
2023-02-23T06:21:21.553Z,9.35
2023-02-23T06:24:25.104Z,9.10
2023-02-23T06:27:28.460Z,8.93
2023-02-23T06:30:32.481Z,8.07
2023-02-23T06:33:36.247Z,16.07
2023-02-23T06:36:39.861Z,13.00
2023-02-23T06:39:43.397Z,12.10
2023-02-23T06:42:47.411Z,13.00
2023-02-23T06:45:51.146Z,14.07
2023-02-23T06:48:59.875Z,15.80
2023-02-23T06:52:03.647Z,14.55
2023-02-23T06:55:08.573Z,13.95
2023-02-23T06:58:12.168Z,16.52
2023-02-23T07:01:16.379Z,21.40
2023-02-23T07:04:20.008Z,22.67
2023-02-23T07:07:23.745Z,18.20
2023-02-23T07:10:27.332Z,24.63
2023-02-23T07:13:30.952Z,19.85
2023-02-23T07:16:34.595Z,20.13
2023-02-23T07:19:38.248Z,16.47
2023-02-23T07:22:43.935Z,17.13
2023-02-23T07:25:47.440Z,15.52
2023-02-23T07:28:53.911Z,15.15
2023-02-23T07:31:57.728Z,12.75
2023-02-23T07:35:01.329Z,12.47
2023-02-23T07:38:07.555Z,13.52
2023-02-23T07:41:11.073Z,12.40
2023-02-23T07:44:14.850Z,12.45
2023-02-23T07:47:18.560Z,12.52
2023-02-23T07:50:22.230Z,12.10
2023-02-23T07:53:27.970Z,12.32
2023-02-23T07:56:31.729Z,13.18
2023-02-23T07:59:35.314Z,13.07
2023-02-23T08:02:38.926Z,12.20
2023-02-23T08:05:44.704Z,11.97
2023-02-23T08:08:48.492Z,13.23
2023-02-23T08:11:52.057Z,12.90
2023-02-23T08:14:55.580Z,12.25
2023-02-23T08:17:59.240Z,11.57
2023-02-23T08:21:04.816Z,12.83
2023-02-23T08:24:08.578Z,12.07
2023-02-23T08:27:12.966Z,12.40
2023-02-23T08:30:17.163Z,12.98
2023-02-23T08:33:20.809Z,12.10
2023-02-23T08:36:24.429Z,12.70
2023-02-23T08:39:27.999Z,11.55
2023-02-23T08:42:31.494Z,12.95
2023-02-23T08:45:35.060Z,12.18
2023-02-23T08:48:40.734Z,13.75
2023-02-23T08:51:47.040Z,11.87
2023-02-23T08:54:51.019Z,12.98
2023-02-23T08:57:54.865Z,12.63
2023-02-23T09:00:58.869Z,12.50
2023-02-23T09:04:02.516Z,10.55
2023-02-23T09:07:06.502Z,10.50
2023-02-23T09:10:12.158Z,12.23
2023-02-23T09:13:17.428Z,12.07
2023-02-23T09:16:21.116Z,9.10
2023-02-23T09:19:24.984Z,9.60
2023-02-23T09:22:29.146Z,11.20
2023-02-23T09:25:33.157Z,10.70
2023-02-23T09:28:38.405Z,10.13
2023-02-23T09:31:43.890Z,9.35
2023-02-23T09:34:48.808Z,9.95
2023-02-23T09:37:55.049Z,9.10
2023-02-23T09:40:58.624Z,9.10
2023-02-23T09:44:21.598Z,10.30
2023-02-23T09:47:33.870Z,13.65
2023-02-23T09:50:40.511Z,9.30
2023-02-23T09:53:56.901Z,10.30
2023-02-23T09:57:03.660Z,8.90
2023-02-23T10:00:37.798Z,8.95
2023-02-23T10:03:54.824Z,11.43
2023-02-23T10:07:00.638Z,8.02
2023-02-23T10:10:11.246Z,8.60
2023-02-23T10:13:42.267Z,8.75
2023-02-23T10:16:57.618Z,8.93
2023-02-23T10:20:14.682Z,8.15
2023-02-23T10:23:31.690Z,7.15
2023-02-23T10:26:44.235Z,6.83
2023-02-23T10:29:52.909Z,7.28
2023-02-23T10:33:17.238Z,7.18
2023-02-23T10:36:35.449Z,6.93
2023-02-23T10:39:42.270Z,7.15
2023-02-23T10:42:46.086Z,6.20
2023-02-23T10:45:52.158Z,6.95
2023-02-23T10:48:57.692Z,7.60
2023-02-23T10:52:03.161Z,8.73
2023-02-23T10:55:22.886Z,8.02
2023-02-23T10:58:26.769Z,8.50
2023-02-23T11:01:49.154Z,8.27
2023-02-23T11:05:00.965Z,9.40
2023-02-23T11:08:27.348Z,8.38
2023-02-23T11:11:31.307Z,7.93
2023-02-23T11:14:35.072Z,8.10
2023-02-23T11:17:39.466Z,8.73
2023-02-23T11:20:43.410Z,8.90
2023-02-23T11:23:50.048Z,7.80
2023-02-23T11:27:00.483Z,9.23
2023-02-23T11:30:07.119Z,8.83
2023-02-23T11:33:21.672Z,8.02
2023-02-23T11:36:31.173Z,8.88
2023-02-23T11:39:35.266Z,7.35
2023-02-23T11:42:50.681Z,6.50
2023-02-23T11:46:00.898Z,7.93
2023-02-23T11:49:09.024Z,7.25
2023-02-23T11:52:24.859Z,7.80
2023-02-23T11:55:30.160Z,8.50
2023-02-23T11:58:53.937Z,8.18
2023-02-23T12:02:19.318Z,7.03
2023-02-23T12:05:31.534Z,6.60
2023-02-23T12:08:55.797Z,6.50
2023-02-23T12:12:11.759Z,5.28
2023-02-23T12:15:59.964Z,5.45
2023-02-23T12:19:13.673Z,6.47
2023-02-23T12:22:25.874Z,5.80
2023-02-23T12:25:45.734Z,6.60
2023-02-23T12:28:58.871Z,6.25
2023-02-23T12:32:13.532Z,6.38
2023-02-23T12:35:31.205Z,6.40
2023-02-23T12:38:57.785Z,5.75
2023-02-23T12:42:38.312Z,5.70
2023-02-23T12:46:16.270Z,5.53
2023-02-23T12:49:26.550Z,5.45
2023-02-23T12:52:36.896Z,5.47
2023-02-23T12:55:58.862Z,5.07
2023-02-23T12:59:22.133Z,5.60
2023-02-23T13:02:45.933Z,5.18
2023-02-23T13:06:19.996Z,5.25
2023-02-23T13:10:00.993Z,6.00
2023-02-23T13:13:16.390Z,5.72
2023-02-23T13:16:44.439Z,6.45
2023-02-23T13:20:16.122Z,5.40
2023-02-23T13:23:57.065Z,5.78
2023-02-23T13:27:34.200Z,5.80
2023-02-23T13:30:42.523Z,5.43
2023-02-23T13:33:46.330Z,5.15
2023-02-23T13:36:50.725Z,7.40
2023-02-23T13:39:54.200Z,8.27
2023-02-23T13:43:17.917Z,5.27
2023-02-23T13:46:44.498Z,8.35
2023-02-23T13:50:05.065Z,17.73
2023-02-23T13:53:44.046Z,8.48
2023-02-23T13:56:56.903Z,4.82
2023-02-23T14:00:01.208Z,4.87
2023-02-23T14:03:07.227Z,5.18
2023-02-23T14:06:15.402Z,13.80
2023-02-23T14:09:35.256Z,6.75
2023-02-23T14:12:40.881Z,5.95
2023-02-23T14:15:49.974Z,6.50
2023-02-23T14:19:07.015Z,89.20
2023-02-23T14:22:15.860Z,16.00
2023-02-23T14:25:54.618Z,8.02
2023-02-23T14:29:17.853Z,7.43
2023-02-23T14:32:21.487Z,39.37
2023-02-23T14:35:34.243Z,23.35
2023-02-23T14:38:47.820Z,6.43
2023-02-23T14:41:56.362Z,5.15
2023-02-23T14:45:07.891Z,6.47
2023-02-23T14:48:13.671Z,5.33
2023-02-23T14:51:52.526Z,5.40
2023-02-23T14:55:18.346Z,7.22
2023-02-23T14:58:38.774Z,18.55
2023-02-23T15:02:08.843Z,16.00
2023-02-23T15:06:02.084Z,7.07
2023-02-23T15:09:07.181Z,10.85
2023-02-23T15:12:29.591Z,25.20
2023-02-23T15:15:33.088Z,17.42
2023-02-23T15:18:44.620Z,8.25
2023-02-23T15:21:56.435Z,12.20
2023-02-23T15:25:02.277Z,14.25
2023-02-23T15:28:23.102Z,9.73
2023-02-23T15:31:31.520Z,9.18
2023-02-23T15:34:35.859Z,9.82
2023-02-23T15:37:59.503Z,24.37
2023-02-23T15:41:37.147Z,24.88
2023-02-23T15:44:45.001Z,11.18
2023-02-23T15:47:52.898Z,11.40
2023-02-23T15:50:58.023Z,12.63
2023-02-23T15:54:03.960Z,11.47
2023-02-23T15:57:17.730Z,10.60
2023-02-23T16:00:33.060Z,35.75
2023-02-23T16:03:44.374Z,37.05
2023-02-23T16:06:55.447Z,35.63
2023-02-23T16:10:40.545Z,18.37
2023-02-23T16:13:48.672Z,10.02
2023-02-23T16:17:10.000Z,11.98
2023-02-23T16:20:19.322Z,28.95
2023-02-23T16:23:41.710Z,51.65
2023-02-23T16:26:53.921Z,50.00
2023-02-23T16:30:16.192Z,25.42
2023-02-23T16:33:42.134Z,27.27
2023-02-23T16:36:51.757Z,27.35
2023-02-23T16:39:56.805Z,21.67
2023-02-23T16:43:00.518Z,22.97
2023-02-23T16:46:04.237Z,23.35
2023-02-23T16:49:12.477Z,24.98
2023-02-23T16:52:19.654Z,23.42
2023-02-23T16:55:26.070Z,24.35
2023-02-23T16:58:30.563Z,22.70
2023-02-23T17:01:34.026Z,22.95
2023-02-23T17:04:37.495Z,24.80
2023-02-23T17:07:41.378Z,24.05
2023-02-23T17:10:48.033Z,22.92
2023-02-23T17:13:51.504Z,44.13
2023-02-23T17:16:55.141Z,40.70
2023-02-23T17:19:58.921Z,43.67
2023-02-23T17:23:03.921Z,41.30
2023-02-23T17:26:11.628Z,48.78
2023-02-23T17:29:15.115Z,47.33
2023-02-23T17:32:18.736Z,54.40
2023-02-23T17:35:23.564Z,57.92
2023-02-23T17:38:34.676Z,36.53
2023-02-23T17:41:38.492Z,42.83
2023-02-23T17:44:42.040Z,29.97
2023-02-23T17:47:45.701Z,27.27
2023-02-23T17:51:01.172Z,27.40
2023-02-23T17:54:04.891Z,31.23
2023-02-23T17:57:08.468Z,28.65
2023-02-23T18:00:13.934Z,30.60
2023-02-23T18:03:17.849Z,24.92
2023-02-23T18:06:22.592Z,25.77
2023-02-23T18:09:26.338Z,35.30
2023-02-23T18:12:30.323Z,34.75
2023-02-23T18:15:34.190Z,37.63
2023-02-23T18:18:42.755Z,38.75
2023-02-23T18:21:46.709Z,68.03
2023-02-23T18:24:50.444Z,54.17
2023-02-23T18:27:55.161Z,54.05
2023-02-23T18:30:59.842Z,49.90
2023-02-23T18:34:03.611Z,39.58
2023-02-23T18:37:10.335Z,46.38
2023-02-23T18:40:23.944Z,41.30
2023-02-23T18:43:27.873Z,44.85
2023-02-23T18:46:32.412Z,37.93
2023-02-23T18:49:37.051Z,39.92
2023-02-23T18:52:41.274Z,40.53
2023-02-23T18:55:46.098Z,42.53
2023-02-23T18:58:51.512Z,41.53
2023-02-23T19:01:55.025Z,44.13
2023-02-23T19:05:02.977Z,45.83
2023-02-23T19:08:13.590Z,48.63
2023-02-23T19:11:17.559Z,45.83
2023-02-23T19:14:32.894Z,48.90
2023-02-23T19:17:46.397Z,50.10
2023-02-23T19:20:55.435Z,46.40
2023-02-23T19:24:01.188Z,44.90
2023-02-23T19:27:04.945Z,42.25
2023-02-23T19:30:10.130Z,40.70
2023-02-23T19:33:18.119Z,39.60
2023-02-23T19:36:26.259Z,38.25
2023-02-23T19:39:31.330Z,42.15
2023-02-23T19:42:37.002Z,41.60
2023-02-23T19:45:46.773Z,40.90
2023-02-23T19:48:52.082Z,36.20
2023-02-23T19:51:57.863Z,37.92
2023-02-23T19:55:02.181Z,30.95
2023-02-23T19:58:06.098Z,33.00
2023-02-23T20:01:18.295Z,32.20
2023-02-23T20:04:22.374Z,34.77
2023-02-23T20:07:26.326Z,32.45
2023-02-23T20:10:34.850Z,33.80
2023-02-23T20:13:39.519Z,30.75
2023-02-23T20:16:43.661Z,30.95
2023-02-23T20:19:47.447Z,30.73
2023-02-23T20:22:53.537Z,31.48
2023-02-23T20:25:57.713Z,31.13
2023-02-23T20:29:03.191Z,20.15
2023-02-23T20:32:07.578Z,26.48
2023-02-23T20:35:16.648Z,21.63
2023-02-23T20:38:20.684Z,29.58
2023-02-23T20:41:28.171Z,29.60
2023-02-23T20:44:33.112Z,31.10
2023-02-23T20:47:38.137Z,36.35
2023-02-23T20:50:42.564Z,38.33
2023-02-23T20:53:48.246Z,38.63
2023-02-23T20:56:59.046Z,37.88
2023-02-23T21:00:11.418Z,38.78
2023-02-23T21:03:16.561Z,41.50
2023-02-23T21:06:22.139Z,42.40
2023-02-23T21:09:26.152Z,42.50
2023-02-23T21:12:30.301Z,40.45
2023-02-23T21:15:35.187Z,46.25
2023-02-23T21:18:39.914Z,45.72
2023-02-23T21:21:49.823Z,50.55
2023-02-23T21:24:53.476Z,51.03
2023-02-23T21:27:57.346Z,49.35
2023-02-23T21:31:00.934Z,55.15
2023-02-23T21:34:06.587Z,57.03
2023-02-23T21:37:10.196Z,51.63
2023-02-23T21:40:20.801Z,35.13
2023-02-23T21:43:24.513Z,42.75
2023-02-23T21:46:28.674Z,38.60
2023-02-23T21:49:32.275Z,31.55
2023-02-23T21:52:36.930Z,33.65
2023-02-23T21:55:40.608Z,35.45
2023-02-23T21:58:49.589Z,34.30
2023-02-23T22:01:53.187Z,32.15
2023-02-23T22:04:58.284Z,26.05
2023-02-23T22:08:01.683Z,26.27
2023-02-23T22:11:10.566Z,29.77
2023-02-23T22:14:16.596Z,30.23
2023-02-23T22:17:20.330Z,28.52
2023-02-23T22:20:25.376Z,27.17
2023-02-23T22:23:29.007Z,24.10
2023-02-23T22:26:37.761Z,27.30
2023-02-23T22:29:41.860Z,28.87
2023-02-23T22:32:45.712Z,26.75
2023-02-23T22:35:52.660Z,22.25
2023-02-23T22:38:59.781Z,26.27
2023-02-23T22:42:09.424Z,24.88
2023-02-23T22:45:13.090Z,21.73
2023-02-23T22:48:16.547Z,20.15
2023-02-23T22:51:20.910Z,18.60
2023-02-23T22:54:24.694Z,22.65
2023-02-23T22:57:28.080Z,26.98
2023-02-23T23:00:32.089Z,23.73
2023-02-23T23:03:36.715Z,24.15
2023-02-23T23:06:42.891Z,21.27
2023-02-23T23:09:46.875Z,22.50
2023-02-23T23:12:50.572Z,24.50
2023-02-23T23:15:57.715Z,29.73
2023-02-23T23:19:13.202Z,21.58
2023-02-23T23:22:17.524Z,19.67
2023-02-23T23:25:23.279Z,17.00
2023-02-23T23:28:27.867Z,18.47
2023-02-23T23:31:34.923Z,15.35
2023-02-23T23:34:38.561Z,19.30
2023-02-23T23:37:42.044Z,15.88
2023-02-23T23:40:47.084Z,15.88
2023-02-23T23:43:54.757Z,16.53
2023-02-23T23:46:58.620Z,13.63
2023-02-23T23:50:03.158Z,15.27
2023-02-23T23:53:07.772Z,18.15
2023-02-23T23:56:11.807Z,14.13
2023-02-23T23:59:18.067Z,16.43
